Time;durP1;ratioP1;P1;durP2;ratioP2;P2;SDS_P1;SDS_P2;PMS_P1;PMS_P2;Temp;Humidity;BMP_temperature;BMP_pressure;BME280_temperature;BME280_humidity;BME280_pressure;Samples;Min_cycle;Max_cycle;Signal;HPM_P1;HPM_P2
2022/04/18 00:02:26;;;;;;;6.87;6.27;;;5.40;99.90;;;;;;5102570;28;20676;-77
2022/04/18 00:04:53;;;;;;;7.10;6.40;;;5.30;99.90;;;;;;5102922;28;20210;-77
2022/04/18 00:07:20;;;;;;;7.10;6.40;;;5.30;99.90;;;;;;5102633;28;20235;-79
2022/04/18 00:09:47;;;;;;;6.87;6.23;;;5.20;99.90;;;;;;5102619;28;20186;-77
2022/04/18 00:12:14;;;;;;;7.30;6.80;;;5.20;99.90;;;;;;5102484;28;20557;-77
2022/04/18 00:14:41;;;;;;;7.50;6.80;;;5.10;99.90;;;;;;5106781;28;20211;-77
2022/04/18 00:17:10;;;;;;;7.10;6.57;;;5.10;99.90;;;;;;5107029;28;20299;-77
2022/04/18 00:19:37;;;;;;;6.90;6.30;;;5.00;99.90;;;;;;5108257;28;20661;-77
2022/04/18 00:22:05;;;;;;;8.07;6.80;;;5.00;99.90;;;;;;5102268;28;20583;-76
2022/04/18 00:24:32;;;;;;;7.90;7.10;;;4.90;99.90;;;;;;5103042;28;20212;-77
2022/04/18 00:27:00;;;;;;;8.20;7.13;;;4.90;99.90;;;;;;5102523;28;20223;-77
2022/04/18 00:29:27;;;;;;;7.33;6.73;;;4.90;99.90;;;;;;5111047;28;20681;-77
2022/04/18 00:31:54;;;;;;;7.50;6.80;;;4.90;99.90;;;;;;5104192;28;20659;-76
2022/04/18 00:34:23;;;;;;;7.50;6.87;;;4.80;99.90;;;;;;5107107;28;20340;-76
2022/04/18 00:36:50;;;;;;;7.43;6.83;;;4.80;99.90;;;;;;5102873;28;20221;-78
2022/04/18 00:39:17;;;;;;;7.50;6.90;;;4.70;99.90;;;;;;5107120;28;20749;-77
2022/04/18 00:41:44;;;;;;;7.70;6.87;;;4.70;99.90;;;;;;5102879;28;20197;-77
2022/04/18 00:44:12;;;;;;;7.80;7.20;;;4.60;99.90;;;;;;5102012;28;20198;-77
2022/04/18 00:46:39;;;;;;;8.27;7.53;;;4.60;99.90;;;;;;5105619;28;20224;-78
2022/04/18 00:49:06;;;;;;;7.80;7.10;;;4.50;99.90;;;;;;5098862;28;20197;-77
2022/04/18 00:51:35;;;;;;;7.60;7.00;;;4.50;99.90;;;;;;5094618;28;20201;-77
2022/04/18 00:54:03;;;;;;;7.80;7.10;;;4.50;99.90;;;;;;5101576;28;20189;-76
2022/04/18 00:56:30;;;;;;;7.67;7.07;;;4.40;99.90;;;;;;5107873;28;20213;-77
2022/04/18 00:58:58;;;;;;;7.97;7.13;;;4.50;99.90;;;;;;5107212;28;20274;-77
2022/04/18 01:01:26;;;;;;;7.43;6.83;;;4.40;99.90;;;;;;5107744;28;20197;-78
2022/04/18 01:03:56;;;;;;;9.27;7.60;;;4.30;99.90;;;;;;5098688;28;20707;-77
2022/04/18 01:06:23;;;;;;;8.27;7.47;;;4.30;99.90;;;;;;5106765;28;20732;-77
2022/04/18 01:08:52;;;;;;;7.50;6.90;;;4.30;99.90;;;;;;5098477;28;20194;-77
2022/04/18 01:11:19;;;;;;;7.53;6.93;;;4.30;99.90;;;;;;5100975;28;20225;-77
2022/04/18 01:14:02;;;;;;;7.87;7.03;;;4.30;99.90;;;;;;5106966;28;20197;-76
2022/04/18 01:16:49;;;;;;;7.90;7.20;;;4.30;99.90;;;;;;5091716;28;20307;-77
2022/04/18 01:19:31;;;;;;;7.93;7.20;;;4.20;99.90;;;;;;5102058;28;20201;-78
2022/04/18 01:22:09;;;;;;;7.80;7.03;;;4.20;99.90;;;;;;5101899;28;20229;-77
2022/04/18 01:30:33;;;;;;;7.53;6.93;;;4.10;99.90;;;;;;5106213;28;20223;-76
2022/04/18 01:33:00;;;;;;;8.07;7.37;;;4.10;99.90;;;;;;5102024;28;20231;-76
2022/04/18 01:35:27;;;;;;;7.63;6.97;;;4.10;99.90;;;;;;5101806;28;20193;-77
2022/04/18 01:37:56;;;;;;;8.60;7.77;;;4.00;99.90;;;;;;5105403;28;20304;-75
2022/04/18 01:40:23;;;;;;;8.77;7.93;;;4.00;99.90;;;;;;5106860;28;20630;-76
2022/04/18 01:42:50;;;;;;;8.50;7.57;;;4.00;99.90;;;;;;5104925;28;20197;-76
2022/04/18 01:45:17;;;;;;;8.73;7.30;;;3.90;99.90;;;;;;5105321;28;20719;-76
2022/04/18 01:47:50;;;;;;;7.50;6.87;;;3.80;99.90;;;;;;5105379;28;20240;-76
2022/04/18 01:50:18;;;;;;;7.40;6.80;;;3.80;99.90;;;;;;5108617;28;20274;-75
2022/04/18 01:52:45;;;;;;;7.97;7.37;;;3.70;99.90;;;;;;5105122;28;20197;-76
2022/04/18 01:55:14;;;;;;;7.73;7.13;;;3.70;99.90;;;;;;5106528;28;20607;-75
2022/04/18 01:57:49;;;;;;;7.33;6.80;;;3.60;99.90;;;;;;5108182;28;20317;-76
2022/04/18 02:00:16;;;;;;;8.20;7.50;;;3.60;99.90;;;;;;5110059;28;20201;-76
2022/04/18 02:02:44;;;;;;;8.70;8.00;;;3.50;99.90;;;;;;5106127;28;20189;-75
2022/04/18 02:05:11;;;;;;;8.30;7.60;;;3.50;99.90;;;;;;5105111;28;20605;-76
2022/04/18 02:07:39;;;;;;;8.07;7.27;;;3.50;99.90;;;;;;5105128;28;20300;-76
2022/04/18 02:10:09;;;;;;;8.17;7.47;;;3.50;99.90;;;;;;5105436;28;20895;-75
2022/04/18 02:12:38;;;;;;;7.50;6.80;;;3.40;99.90;;;;;;5101206;28;20472;-75
2022/04/18 02:15:08;;;;;;;7.90;7.20;;;3.40;99.90;;;;;;5101645;28;20193;-75
2022/04/18 02:17:44;;;;;;;7.73;7.13;;;3.40;99.90;;;;;;5097649;28;20220;-76
2022/04/18 02:20:12;;;;;;;7.57;6.87;;;3.40;99.90;;;;;;5101398;28;20242;-76
2022/04/18 02:22:39;;;;;;;8.03;7.33;;;3.30;99.90;;;;;;5104426;28;20579;-76
2022/04/18 02:25:08;;;;;;;7.93;6.90;;;3.40;99.90;;;;;;5105704;28;20295;-76
2022/04/18 02:27:36;;;;;;;8.00;7.30;;;3.40;99.90;;;;;;5109538;28;20590;-76
2022/04/18 02:30:07;;;;;;;7.60;7.00;;;3.30;99.90;;;;;;5101556;28;20225;-76
2022/04/18 02:32:49;;;;;;;8.23;7.53;;;3.20;99.90;;;;;;5097179;28;20242;-76
2022/04/18 02:35:19;;;;;;;8.60;7.80;;;3.20;99.90;;;;;;5104441;28;20204;-75
2022/04/18 02:37:48;;;;;;;7.93;7.23;;;3.10;99.90;;;;;;5108088;28;20315;-76
2022/04/18 02:40:19;;;;;;;8.73;7.93;;;3.10;99.90;;;;;;5104336;28;20285;-76
2022/04/18 02:42:46;;;;;;;8.07;7.37;;;3.10;99.90;;;;;;5104382;28;20500;-75
2022/04/18 02:45:17;;;;;;;8.40;7.70;;;3.00;99.90;;;;;;5104261;28;20527;-76
2022/04/18 02:48:03;;;;;;;8.23;7.53;;;2.90;99.90;;;;;;5102355;28;20442;-76
2022/04/18 02:50:33;;;;;;;8.10;7.40;;;2.90;99.90;;;;;;5102619;28;20986;-75
2022/04/18 02:53:00;;;;;;;7.90;7.30;;;2.90;99.90;;;;;;5107215;28;20197;-76
2022/04/18 02:55:39;;;;;;;8.20;7.50;;;2.80;99.90;;;;;;5112674;28;20528;-76
2022/04/18 02:58:06;;;;;;;8.03;7.33;;;2.80;99.90;;;;;;5103954;28;20473;-76
2022/04/18 03:00:37;;;;;;;8.60;7.90;;;2.70;99.90;;;;;;5109817;28;20504;-75
2022/04/18 03:03:04;;;;;;;8.57;7.87;;;2.70;99.90;;;;;;5104233;28;20592;-75
2022/04/18 03:05:34;;;;;;;8.53;7.83;;;2.80;99.90;;;;;;5109073;28;20564;-76
2022/04/18 03:08:01;;;;;;;7.90;7.20;;;2.80;99.90;;;;;;5100449;28;20239;-75
2022/04/18 03:13:11;;;;;;;8.53;7.83;;;2.70;99.90;;;;;;5095527;27;20450;-76
2022/04/18 03:15:39;;;;;;;9.07;8.17;;;2.60;99.90;;;;;;5114604;27;20440;-76
2022/04/18 03:18:07;;;;;;;8.50;7.73;;;2.50;99.90;;;;;;5110103;28;20460;-79
2022/04/18 03:20:34;;;;;;;9.17;8.27;;;2.50;99.90;;;;;;5105694;28;20999;-77
2022/04/18 03:23:01;;;;;;;9.17;8.20;;;2.50;99.90;;;;;;5108017;28;20446;-77
2022/04/18 03:25:46;;;;;;;7.80;7.10;;;2.50;99.90;;;;;;5112697;28;20873;-79
2022/04/18 03:28:13;;;;;;;8.47;7.67;;;2.50;99.90;;;;;;5109311;28;20439;-78
2022/04/18 03:30:44;;;;;;;9.13;8.17;;;2.40;99.90;;;;;;5093718;28;20455;-78
2022/04/18 03:33:11;;;;;;;8.63;7.97;;;2.40;99.90;;;;;;5112133;28;20457;-78
2022/04/18 03:39:50;;;;;;;9.37;8.30;;;2.40;99.90;;;;;;5100131;28;20532;-78
2022/04/18 03:41:10;;;;;;;8.00;7.37;;;2.30;99.90;;;;;;5108947;28;20847;-78
2022/04/18 03:43:37;;;;;;;7.77;7.17;;;2.40;99.90;;;;;;5111677;28;20441;-77
2022/04/18 03:46:06;;;;;;;8.27;7.57;;;2.30;99.90;;;;;;5112285;28;20466;-78
2022/04/18 03:48:33;;;;;;;9.00;8.10;;;2.30;99.90;;;;;;5098761;28;20504;-77
2022/04/18 03:51:01;;;;;;;9.10;7.70;;;2.20;99.90;;;;;;5103949;28;20902;-78
2022/04/18 03:53:29;;;;;;;8.40;7.70;;;2.20;99.90;;;;;;5103547;28;20436;-78
2022/04/18 03:55:56;;;;;;;8.67;7.97;;;2.20;99.90;;;;;;5105825;28;20496;-78
2022/04/18 03:58:46;;;;;;;8.33;7.57;;;2.20;99.90;;;;;;5101437;28;20455;-77
2022/04/18 04:01:16;;;;;;;9.07;8.00;;;2.20;99.90;;;;;;5111144;28;20443;-77
2022/04/18 04:03:44;;;;;;;8.20;7.60;;;2.10;99.90;;;;;;5098021;28;20487;-78
2022/04/18 04:06:11;;;;;;;8.93;8.13;;;2.00;99.90;;;;;;5095576;28;20481;-77
2022/04/18 04:08:38;;;;;;;8.63;7.83;;;2.00;99.90;;;;;;5111665;28;20503;-76
2022/04/18 04:11:10;;;;;;;9.13;8.33;;;2.00;99.90;;;;;;5103829;28;20445;-78
2022/04/18 04:13:39;;;;;;;9.53;8.70;;;2.00;99.90;;;;;;5099985;28;20860;-78
2022/04/18 04:16:25;;;;;;;10.07;9.03;;;2.00;99.90;;;;;;5108052;28;20981;-78
2022/04/18 04:18:56;;;;;;;9.60;8.70;;;2.10;99.90;;;;;;5099911;28;20447;-78
2022/04/18 04:21:23;;;;;;;9.77;8.77;;;2.10;99.90;;;;;;5103048;28;20456;-78
2022/04/18 04:23:53;;;;;;;9.23;8.33;;;2.10;99.90;;;;;;5105960;28;20462;-78
2022/04/18 04:26:35;;;;;;;8.77;7.97;;;2.10;99.90;;;;;;5099423;28;20571;-78
2022/04/18 04:29:02;;;;;;;9.30;8.30;;;2.10;99.90;;;;;;5104632;28;20447;-78
2022/04/18 04:31:36;;;;;;;10.07;9.10;;;2.10;99.90;;;;;;5102606;28;20453;-78
2022/04/18 04:34:03;;;;;;;9.60;8.70;;;2.10;99.90;;;;;;5111420;28;20437;-78
2022/04/18 04:36:36;;;;;;;9.37;8.57;;;2.20;99.90;;;;;;5099434;28;20464;-78
2022/04/18 04:39:03;;;;;;;9.43;8.63;;;2.20;99.90;;;;;;5099471;28;20517;-77
2022/04/18 04:41:38;;;;;;;9.07;8.27;;;2.20;99.90;;;;;;5099476;28;20483;-78
2022/04/18 04:44:06;;;;;;;8.87;8.07;;;2.20;99.90;;;;;;5102738;28;20457;-78
2022/04/18 04:46:59;;;;;;;8.87;8.07;;;2.30;99.90;;;;;;5105512;28;20628;-78
2022/04/18 04:49:28;;;;;;;9.93;8.67;;;2.20;99.90;;;;;;5101438;28;20501;-77
2022/04/18 04:52:22;;;;;;;8.97;8.27;;;2.20;99.90;;;;;;5100909;28;20460;-79
2022/04/18 04:54:50;;;;;;;10.00;8.90;;;2.20;99.90;;;;;;5104118;28;20444;-80
2022/04/18 04:57:35;;;;;;;8.90;8.10;;;2.20;99.90;;;;;;5104373;28;20843;-80
2022/04/18 05:00:21;;;;;;;9.63;8.73;;;2.20;99.90;;;;;;5109043;28;20922;-80
2022/04/18 05:03:16;;;;;;;8.77;8.07;;;2.30;99.90;;;;;;5107421;28;20536;-81
2022/04/18 05:05:44;;;;;;;9.80;8.80;;;2.30;99.90;;;;;;5107209;28;20924;-82
2022/04/18 05:08:28;;;;;;;9.10;8.30;;;2.40;99.90;;;;;;5105834;28;20514;-78
2022/04/18 05:10:59;;;;;;;9.50;8.60;;;2.60;99.90;;;;;;5102649;28;20499;-78
2022/04/18 05:13:39;;;;;;;9.67;8.67;;;2.70;99.90;;;;;;5094450;28;21023;-79
2022/04/18 05:16:06;;;;;;;8.67;7.97;;;2.80;99.90;;;;;;5111729;28;20458;-78
2022/04/18 05:18:54;;;;;;;9.13;8.33;;;2.80;99.90;;;;;;5103189;28;20458;-78
2022/04/18 05:21:22;;;;;;;9.03;8.23;;;3.00;99.90;;;;;;5104631;28;20467;-77
2022/04/18 05:23:51;;;;;;;8.57;7.83;;;3.10;99.90;;;;;;5101240;28;20466;-78
2022/04/18 05:26:18;;;;;;;8.93;8.20;;;3.30;99.90;;;;;;5098328;28;20566;-79
2022/04/18 05:28:46;;;;;;;9.17;8.27;;;3.40;99.90;;;;;;5107592;28;20208;-79
2022/04/18 05:31:13;;;;;;;9.10;8.10;;;3.70;99.90;;;;;;5106016;28;20204;-79
2022/04/18 05:33:41;;;;;;;9.90;8.40;;;4.30;99.90;;;;;;5109365;28;20224;-80
2022/04/18 05:36:32;;;;;;;9.17;8.27;;;4.90;99.90;;;;;;5110336;28;20219;-81
2022/04/18 05:39:00;;;;;;;9.23;8.37;;;5.30;99.90;;;;;;5114727;28;20198;-79
2022/04/18 05:41:38;;;;;;;7.70;7.10;;;5.70;99.90;;;;;;5113051;28;20190;-78
2022/04/18 05:44:06;;;;;;;8.10;7.40;;;6.00;99.90;;;;;;5114864;28;20216;-80
2022/04/18 05:46:41;;;;;;;8.00;7.30;;;6.10;99.90;;;;;;5114525;28;20213;-80
2022/04/18 05:49:09;;;;;;;8.50;7.70;;;6.20;99.90;;;;;;5115340;28;20439;-79
2022/04/18 05:51:38;;;;;;;7.90;7.13;;;6.50;99.90;;;;;;5108931;28;20197;-79
2022/04/18 05:54:06;;;;;;;7.07;6.30;;;6.40;99.90;;;;;;5116836;28;20190;-79
2022/04/18 05:56:39;;;;;;;6.90;6.30;;;6.50;99.90;;;;;;5111200;28;20214;-78
2022/04/18 05:59:19;;;;;;;7.33;6.73;;;6.40;99.90;;;;;;5113184;28;20662;-77
2022/04/18 06:01:57;;;;;;;7.77;7.07;;;6.60;99.90;;;;;;5111117;28;20194;-79
2022/04/18 06:04:33;;;;;;;7.73;7.13;;;6.80;99.90;;;;;;5114745;28;20219;-79
2022/04/18 06:07:19;;;;;;;7.93;7.23;;;6.90;99.90;;;;;;5116851;28;20668;-79
2022/04/18 06:10:11;;;;;;;5.77;4.63;;;6.90;99.90;;;;;;5104522;28;20206;-79
2022/04/18 06:12:38;;;;;;;4.90;3.83;;;7.00;99.90;;;;;;5109316;28;20200;-79
2022/04/18 06:15:06;;;;;;;5.10;3.67;;;7.30;99.90;;;;;;5104452;28;20673;-79
2022/04/18 06:17:34;;;;;;;5.23;3.80;;;7.50;99.90;;;;;;5112764;28;20213;-79
2022/04/18 06:20:03;;;;;;;5.83;3.80;;;7.80;99.90;;;;;;5109759;28;20196;-79
2022/04/18 06:22:32;;;;;;;5.87;4.20;;;8.10;99.90;;;;;;5115256;28;20205;-79
2022/04/18 06:25:00;;;;;;;5.80;3.80;;;8.20;99.90;;;;;;5112293;28;20207;-79
2022/04/18 06:27:29;;;;;;;5.40;4.90;;;8.40;99.90;;;;;;5114358;28;20716;-79
2022/04/18 06:29:57;;;;;;;6.43;5.90;;;8.50;99.90;;;;;;5115214;28;20248;-79
2022/04/18 06:32:25;;;;;;;4.97;3.87;;;8.70;99.90;;;;;;5113515;28;20603;-79
2022/04/18 06:34:53;;;;;;;6.13;4.63;;;8.80;99.90;;;;;;5108263;28;20201;-79
2022/04/18 06:37:26;;;;;;;6.33;4.90;;;8.90;99.90;;;;;;5117718;28;20213;-79
2022/04/18 06:40:29;;;;;;;4.97;4.47;;;9.00;99.90;;;;;;5077499;28;20253;-78
2022/04/18 06:42:57;;;;;;;7.70;5.27;;;8.90;99.90;;;;;;5101292;28;20592;-78
2022/04/18 06:45:31;;;;;;;7.17;5.77;;;8.90;99.90;;;;;;5100760;27;20209;-80
2022/04/18 06:47:59;;;;;;;5.37;4.53;;;9.00;99.90;;;;;;5115882;27;20212;-79
2022/04/18 06:50:41;;;;;;;6.23;4.70;;;9.00;99.90;;;;;;5109476;28;20609;-82
2022/04/18 06:53:35;;;;;;;7.13;6.20;;;9.10;99.90;;;;;;5101102;28;20285;-82
2022/04/18 06:59:24;;;;;;;7.13;5.63;;;9.30;99.90;;;;;;5108132;28;20286;-80
2022/04/18 07:01:51;;;;;;;5.53;4.93;;;9.30;99.90;;;;;;5098859;28;20204;-80
2022/04/18 07:04:19;;;;;;;5.47;4.50;;;9.50;99.90;;;;;;5111001;28;20571;-80
2022/04/18 07:06:46;;;;;;;5.70;5.20;;;9.70;99.90;;;;;;5114563;27;20708;-80
2022/04/18 07:09:13;;;;;;;6.60;5.67;;;9.90;99.90;;;;;;5102187;27;20193;-80
2022/04/18 07:11:49;;;;;;;5.43;4.93;;;10.10;99.90;;;;;;5106468;28;20198;-80
2022/04/18 07:14:18;;;;;;;6.70;5.23;;;10.30;99.90;;;;;;5108313;28;20201;-80
2022/04/18 07:16:49;;;;;;;5.17;4.50;;;10.60;99.90;;;;;;5111656;28;20229;-80
2022/04/18 07:19:21;;;;;;;6.27;4.07;;;10.70;99.90;;;;;;5107570;28;20217;-80
2022/04/18 07:21:49;;;;;;;6.13;4.07;;;10.70;99.90;;;;;;5104679;28;20194;-81
2022/04/18 07:24:16;;;;;;;4.70;4.03;;;11.20;99.90;;;;;;5101106;28;20249;-81
2022/04/18 07:26:46;;;;;;;6.90;3.90;;;11.70;99.90;;;;;;5100020;28;20234;-80
2022/04/18 07:29:14;;;;;;;5.27;4.13;;;12.20;99.90;;;;;;5104475;28;20218;-80
2022/04/18 07:31:43;;;;;;;4.83;4.00;;;12.70;99.90;;;;;;5104861;27;20197;-80
2022/04/18 07:34:11;;;;;;;5.40;4.90;;;13.20;99.90;;;;;;5094665;28;20194;-80
2022/04/18 07:36:38;;;;;;;6.60;5.10;;;13.60;99.90;;;;;;5216703;22;20213;-80
2022/04/18 07:39:06;;;;;;;6.07;4.03;;;13.90;99.90;;;;;;5080132;28;20194;-78
2022/04/18 07:41:37;;;;;;;5.27;4.03;;;13.90;99.80;;;;;;5081198;28;20596;-78
2022/04/18 07:44:05;;;;;;;4.00;3.50;;;14.10;99.00;;;;;;5079582;28;20199;-79
2022/04/18 07:46:36;;;;;;;5.57;4.00;;;14.10;99.90;;;;;;5087360;28;20569;-79
2022/04/18 07:49:08;;;;;;;6.83;4.20;;;14.60;99.70;;;;;;5094989;28;20204;-78
2022/04/18 07:51:42;;;;;;;5.80;3.90;;;14.60;97.50;;;;;;5075813;28;20265;-78
2022/04/18 07:54:27;;;;;;;4.50;4.10;;;14.80;98.80;;;;;;5097345;28;20227;-77
2022/04/18 07:56:54;;;;;;;5.67;3.83;;;15.10;98.50;;;;;;5075801;28;20335;-84
2022/04/18 07:59:30;;;;;;;5.07;3.92;;;15.20;97.40;;;;;;5070653;28;20831;-80
2022/04/18 08:01:58;;;;;;;4.80;4.40;;;15.30;97.40;;;;;;5077510;28;20196;-82
2022/04/18 08:04:48;;;;;;;5.53;4.37;;;15.40;96.90;;;;;;5079798;28;20220;-82
2022/04/18 08:07:26;;;;;;;5.80;4.37;;;15.40;96.40;;;;;;5073946;28;20225;-81
2022/04/18 08:09:54;;;;;;;6.67;5.07;;;15.50;96.80;;;;;;5086606;28;20251;-82
2022/04/18 08:12:21;;;;;;;7.03;5.17;;;15.30;96.00;;;;;;5095582;28;20544;-81
2022/04/18 08:15:11;;;;;;;5.20;4.70;;;15.40;96.40;;;;;;5056483;28;20240;-81
2022/04/18 08:17:40;;;;;;;5.70;4.50;;;15.80;96.90;;;;;;5079769;28;20216;-81
2022/04/18 08:20:08;;;;;;;6.10;5.10;;;15.90;96.70;;;;;;5086272;28;20189;-82
2022/04/18 08:22:35;;;;;;;6.80;5.93;;;15.80;95.90;;;;;;5091669;28;20202;-82
2022/04/18 08:25:26;;;;;;;7.70;7.10;;;15.10;96.00;;;;;;5067279;28;20206;-83
2022/04/18 08:28:15;;;;;;;5.57;5.07;;;15.50;97.60;;;;;;5102864;28;20600;-82
2022/04/18 08:30:42;;;;;;;6.90;4.37;;;16.00;96.60;;;;;;5069156;28;20224;-82
2022/04/18 08:33:24;;;;;;;8.00;7.30;;;16.30;96.00;;;;;;5075769;28;20197;-82
2022/04/18 08:35:51;;;;;;;5.97;4.20;;;16.60;95.70;;;;;;5079808;28;20203;-83
2022/04/18 08:38:18;;;;;;;4.73;3.50;;;16.80;95.50;;;;;;5075187;28;20214;-82
2022/04/18 08:41:23;;;;;;;8.90;8.03;;;17.00;95.40;;;;;;5012702;28;20212;-81
2022/04/18 08:43:51;;;;;;;7.33;6.70;;;16.90;92.40;;;;;;5065358;28;20477;-82
2022/04/18 08:46:18;;;;;;;7.67;7.07;;;17.10;94.10;;;;;;5088150;28;20201;-82
2022/04/18 08:54:34;;;;;;;6.63;6.13;;;16.90;92.70;;;;;;5024105;28;20691;-83
2022/04/18 08:57:01;;;;;;;7.43;6.83;;;16.70;93.30;;;;;;5078872;28;20270;-82
2022/04/18 08:59:29;;;;;;;7.37;6.60;;;16.80;93.20;;;;;;5083489;28;20332;-83
2022/04/18 09:02:16;;;;;;;7.13;6.53;;;16.90;92.60;;;;;;5079398;28;20201;-82
2022/04/18 09:05:03;;;;;;;7.63;7.03;;;16.80;93.10;;;;;;5096605;28;20217;-82
2022/04/18 09:07:33;;;;;;;7.57;6.87;;;16.90;92.50;;;;;;5076122;28;20506;-82
2022/04/18 09:10:03;;;;;;;7.40;6.70;;;17.30;93.40;;;;;;5085783;28;20220;-83
2022/04/18 09:12:41;;;;;;;7.10;6.53;;;17.50;92.20;;;;;;5107098;28;20207;-82
2022/04/18 09:15:31;;;;;;;6.97;6.37;;;17.50;91.80;;;;;;5085882;28;20209;-81
2022/04/18 09:18:10;;;;;;;7.33;6.73;;;17.30;92.80;;;;;;5093339;28;20209;-81
2022/04/18 09:20:52;;;;;;;7.87;7.27;;;17.80;92.30;;;;;;5105613;28;20262;-81
2022/04/18 09:23:22;;;;;;;7.53;6.83;;;18.30;91.30;;;;;;5073024;28;20198;-81
2022/04/18 09:25:55;;;;;;;7.80;7.10;;;18.10;91.10;;;;;;5088689;28;20787;-82
2022/04/18 09:28:27;;;;;;;7.80;7.10;;;17.90;91.20;;;;;;5085246;28;20468;-82
2022/04/18 09:30:59;;;;;;;8.23;7.50;;;17.90;92.50;;;;;;5109114;28;20203;-81
2022/04/18 09:33:30;;;;;;;7.70;7.10;;;18.10;90.60;;;;;;5082690;28;20668;-81
2022/04/18 09:36:25;;;;;;;7.93;7.10;;;18.30;93.10;;;;;;5080039;28;20218;-82
2022/04/18 09:39:00;;;;;;;8.07;7.47;;;18.50;92.20;;;;;;5069156;28;20693;-80
2022/04/18 09:41:29;;;;;;;8.13;7.33;;;18.50;91.40;;;;;;5102846;28;20231;-82
2022/04/18 09:44:00;;;;;;;7.90;7.27;;;18.00;88.50;;;;;;5090116;28;20233;-82
2022/04/18 09:46:33;;;;;;;7.57;6.77;;;18.00;89.20;;;;;;5081491;28;20217;-82
2022/04/18 09:49:10;;;;;;;8.07;7.27;;;18.10;90.20;;;;;;5093698;28;20195;-82
2022/04/18 09:51:46;;;;;;;7.80;7.20;;;18.30;90.20;;;;;;5073162;28;20209;-80
2022/04/18 09:54:20;;;;;;;7.37;6.70;;;18.50;90.50;;;;;;5090735;28;20591;-82
2022/04/18 09:56:52;;;;;;;6.70;6.10;;;18.40;87.60;;;;;;5089251;28;20236;-83
2022/04/18 09:59:25;;;;;;;6.97;6.47;;;18.60;88.00;;;;;;5091017;28;20438;-82
2022/04/18 10:01:52;;;;;;;6.67;6.07;;;18.80;87.10;;;;;;5079013;28;20258;-82
2022/04/18 10:04:22;;;;;;;6.63;6.07;;;18.40;85.40;;;;;;5094789;28;20231;-82
2022/04/18 10:06:51;;;;;;;6.30;5.80;;;18.30;89.10;;;;;;5086303;28;20221;-82
2022/04/18 10:09:21;;;;;;;6.50;6.00;;;18.30;85.20;;;;;;5095893;28;20206;-84
2022/04/18 10:11:49;;;;;;;7.33;6.33;;;18.00;82.10;;;;;;5077427;28;20286;-83
2022/04/18 10:14:18;;;;;;;6.60;5.97;;;17.70;80.80;;;;;;5089290;28;20651;-82
2022/04/18 10:16:46;;;;;;;6.33;5.73;;;17.30;85.30;;;;;;5091522;28;20714;-81
2022/04/18 10:19:25;;;;;;;6.55;5.95;;;17.50;84.20;;;;;;5081642;28;20527;-82
2022/04/18 10:22:07;;;;;;;6.50;6.00;;;17.30;82.90;;;;;;5082173;28;20478;-82
2022/04/18 10:25:00;;;;;;;6.80;5.80;;;17.10;85.40;;;;;;5078979;28;20197;-82
2022/04/18 10:27:52;;;;;;;6.50;6.00;;;17.20;84.20;;;;;;5083471;28;20256;-82
2022/04/18 10:30:29;;;;;;;6.60;6.00;;;17.10;82.10;;;;;;5088962;28;20289;-83
2022/04/18 10:32:57;;;;;;;7.07;6.40;;;17.40;83.10;;;;;;5101441;28;20202;-82
2022/04/18 10:35:24;;;;;;;6.70;6.10;;;17.30;82.40;;;;;;5096716;28;20951;-82
2022/04/18 10:37:55;;;;;;;6.53;6.03;;;16.80;82.60;;;;;;5087534;28;20632;-83
2022/04/18 10:40:28;;;;;;;6.27;5.53;;;16.80;84.90;;;;;;5099239;28;20206;-83
2022/04/18 10:43:00;;;;;;;6.23;5.73;;;16.90;84.10;;;;;;5096230;28;20196;-82
2022/04/18 10:45:29;;;;;;;5.97;5.47;;;16.70;82.50;;;;;;5092663;28;20197;-82
2022/04/18 10:48:06;;;;;;;6.97;6.00;;;16.60;84.70;;;;;;5094791;28;20226;-82
2022/04/18 10:50:40;;;;;;;5.80;5.30;;;16.60;84.50;;;;;;5082981;28;20189;-82
2022/04/18 10:53:19;;;;;;;4.57;3.70;;;16.50;83.90;;;;;;5089832;28;20240;-81
2022/04/18 10:56:11;;;;;;;4.33;3.93;;;16.50;82.80;;;;;;5089175;28;20260;-83
2022/04/18 10:58:38;;;;;;;4.97;4.50;;;16.30;83.20;;;;;;5078722;28;20225;-82
2022/04/18 11:01:09;;;;;;;5.50;5.00;;;15.90;83.20;;;;;;5094221;28;20204;-82
2022/04/18 11:03:43;;;;;;;4.03;3.07;;;16.00;85.50;;;;;;5089494;28;20622;-82
2022/04/18 11:06:11;;;;;;;4.47;3.20;;;16.10;86.40;;;;;;5087698;28;20265;-83
2022/04/18 11:08:40;;;;;;;4.60;3.57;;;16.00;85.50;;;;;;5091078;28;20218;-82
2022/04/18 11:11:08;;;;;;;4.63;4.17;;;15.90;84.00;;;;;;5090753;28;20240;-82
2022/04/18 11:13:35;;;;;;;6.20;5.60;;;15.70;83.50;;;;;;5091197;28;20198;-82
2022/04/18 11:16:45;;;;;;;7.17;6.33;;;15.90;85.20;;;;;;5091810;28;20732;-83
2022/04/18 11:19:19;;;;;;;4.47;3.63;;;15.70;84.20;;;;;;5093461;28;20223;-81
2022/04/18 11:22:07;;;;;;;4.47;3.70;;;15.70;84.00;;;;;;5095579;28;20200;-82
2022/04/18 11:24:37;;;;;;;3.70;3.40;;;15.90;85.20;;;;;;5095884;28;20189;-82
2022/04/18 11:27:07;;;;;;;3.30;2.80;;;16.10;86.20;;;;;;5098600;28;20221;-82
2022/04/18 11:29:35;;;;;;;3.53;2.97;;;16.10;85.00;;;;;;5094344;28;20216;-82
2022/04/18 11:32:02;;;;;;;4.43;3.70;;;16.20;88.50;;;;;;5096061;28;20190;-82
2022/04/18 11:34:31;;;;;;;5.90;5.40;;;16.30;82.60;;;;;;5082646;28;20248;-82
2022/04/18 11:37:01;;;;;;;6.30;5.70;;;16.10;84.00;;;;;;5077574;28;20225;-80
2022/04/18 11:39:44;;;;;;;6.67;6.00;;;16.00;82.70;;;;;;5094734;28;20228;-83
2022/04/18 11:42:15;;;;;;;5.40;4.50;;;15.90;85.10;;;;;;5085429;28;20199;-82
2022/04/18 11:44:43;;;;;;;4.47;3.80;;;15.80;85.00;;;;;;5083729;28;20205;-84
2022/04/18 11:47:12;;;;;;;6.43;3.53;;;15.70;85.50;;;;;;5082990;28;20218;-83
2022/04/18 11:49:39;;;;;;;6.53;3.87;;;16.00;88.40;;;;;;5096448;28;20658;-82
2022/04/18 11:52:07;;;;;;;6.23;4.80;;;16.00;85.60;;;;;;5092110;28;20198;-83
2022/04/18 11:54:34;;;;;;;6.03;5.43;;;15.90;88.20;;;;;;5091732;28;20211;-83
2022/04/18 11:57:04;;;;;;;5.33;3.53;;;15.80;86.10;;;;;;5094294;28;20229;-84
2022/04/18 11:59:32;;;;;;;5.03;3.20;;;15.90;85.60;;;;;;5091834;28;20212;-84
2022/04/18 12:07:32;;;;;;;5.73;4.00;;;16.20;86.20;;;;;;5092749;28;20226;-83
2022/04/18 12:09:59;;;;;;;5.77;4.10;;;16.20;86.50;;;;;;5093743;28;20713;-84
2022/04/18 12:12:28;;;;;;;5.50;4.70;;;16.20;87.40;;;;;;5089501;28;20251;-83
2022/04/18 12:15:00;;;;;;;5.70;4.90;;;16.10;86.90;;;;;;5087769;28;20232;-84
2022/04/18 12:17:33;;;;;;;8.33;5.97;;;16.20;88.10;;;;;;5087493;28;20237;-83
2022/04/18 12:20:19;;;;;;;5.13;4.73;;;16.20;87.60;;;;;;5094276;28;20303;-81
2022/04/18 12:22:51;;;;;;;5.67;4.90;;;16.30;88.40;;;;;;5085553;28;20228;-82
2022/04/18 12:25:25;;;;;;;5.83;5.20;;;16.20;86.50;;;;;;5093374;28;20201;-83
2022/04/18 12:27:54;;;;;;;5.00;4.57;;;16.30;87.50;;;;;;5089314;28;20216;-84
2022/04/18 12:30:22;;;;;;;6.40;4.03;;;16.30;87.90;;;;;;5091067;28;20620;-85
2022/04/18 12:32:49;;;;;;;4.03;3.33;;;16.30;85.80;;;;;;5096153;28;20575;-79
2022/04/18 12:35:32;;;;;;;4.00;3.27;;;16.30;86.90;;;;;;5075885;28;20223;-80
2022/04/18 12:38:02;;;;;;;3.97;3.33;;;16.40;85.90;;;;;;5089724;28;20269;-81
2022/04/18 12:40:37;;;;;;;4.03;3.30;;;16.20;87.00;;;;;;5091771;28;20581;-80
2022/04/18 12:43:11;;;;;;;5.07;3.50;;;16.30;89.80;;;;;;5084414;28;20199;-79
2022/04/18 12:45:47;;;;;;;4.17;3.77;;;16.20;89.40;;;;;;5076730;28;20191;-80
2022/04/18 12:48:14;;;;;;;3.90;3.03;;;16.40;90.10;;;;;;5087077;28;20322;-80
2022/04/18 12:50:44;;;;;;;5.40;3.73;;;16.40;87.50;;;;;;5092277;28;20258;-79
2022/04/18 12:53:12;;;;;;;5.60;4.23;;;16.40;88.90;;;;;;5074982;28;20209;-78
2022/04/18 12:55:39;;;;;;;5.13;3.73;;;16.30;85.10;;;;;;5085270;28;20193;-80
2022/04/18 12:58:18;;;;;;;5.63;3.63;;;16.20;86.80;;;;;;5091780;28;20212;-81
2022/04/18 13:00:47;;;;;;;4.80;3.30;;;16.20;88.50;;;;;;5080565;28;20661;-78
2022/04/18 13:03:16;;;;;;;4.80;3.73;;;16.30;88.10;;;;;;5077632;28;20198;-81
2022/04/18 13:05:44;;;;;;;4.17;3.60;;;16.30;86.60;;;;;;5077046;28;20611;-79
2022/04/18 13:08:12;;;;;;;5.87;4.00;;;16.20;86.20;;;;;;5075852;28;20761;-81
2022/04/18 13:10:39;;;;;;;4.17;3.20;;;16.20;87.40;;;;;;5089135;28;20198;-81
2022/04/18 13:13:08;;;;;;;5.30;4.80;;;16.20;86.50;;;;;;5090078;28;20227;-81
2022/04/18 13:15:39;;;;;;;5.83;4.70;;;16.20;86.30;;;;;;5089523;28;20286;-80
2022/04/18 13:18:08;;;;;;;5.30;4.80;;;16.10;85.20;;;;;;5085944;28;20213;-80
2022/04/18 13:20:37;;;;;;;5.90;3.93;;;16.10;86.60;;;;;;5087332;28;20192;-81
2022/04/18 13:23:06;;;;;;;5.00;4.07;;;16.20;87.90;;;;;;5088891;28;20200;-81
2022/04/18 13:25:34;;;;;;;6.70;4.70;;;16.20;86.30;;;;;;5093732;28;20212;-81
2022/04/18 13:28:06;;;;;;;5.17;4.40;;;16.20;86.00;;;;;;5083908;28;20278;-80
2022/04/18 13:30:37;;;;;;;5.80;4.00;;;16.20;85.90;;;;;;5090905;28;20723;-80
2022/04/18 13:33:06;;;;;;;5.73;4.17;;;16.20;88.50;;;;;;5092747;28;20202;-81
2022/04/18 13:36:30;;;;;;;5.70;4.20;;;16.20;86.20;;;;;;5106647;28;20222;-86
2022/04/18 13:38:24;;;;;;;5.10;4.60;;;16.20;86.30;;;;;;5114975;22;20257;-79
2022/04/18 13:40:51;;;;;;;4.33;3.50;;;16.20;87.60;;;;;;5090083;28;20201;-81
2022/04/18 13:43:19;;;;;;;5.43;3.10;;;16.30;85.70;;;;;;5088481;28;20745;-79
2022/04/18 13:45:47;;;;;;;5.40;4.90;;;16.30;87.00;;;;;;5085768;28;20695;-79